Terminal Aerodrome Forecast
Issued by NWS Shreveport, LA

Home | Current Version | Previous Version | Text Only | Print | Product List | Glossary On
Versions: 1 2 3 4 5 6 7 8 9 10 11 12
000
FTUS44 KSHV 050544
TAFTXK
TAF
KTXK 050544Z 0506/0606 15005KT P6SM BKN130
     FM051400 23008KT P6SM SCT130 SCT250
     FM051800 22008KT P6SM SCT050 SCT250
     FM060200 18006KT P6SM FEW250=

USA.gov is the U.S. government's official web portal to all federal, state and local government web resources and services.